sensor_id;sensor_type;location;lat;lon;timestamp;P1;durP1;ratioP1;P2;durP2;ratioP2
70199;SDS011;57587;55.688;37.600;2023-03-01T00:01:24;3.97;;;2.30;;
70199;SDS011;57587;55.688;37.600;2023-03-01T00:03:54;3.57;;;2.13;;
70199;SDS011;57587;55.688;37.600;2023-03-01T00:06:21;4.38;;;2.35;;
70199;SDS011;57587;55.688;37.600;2023-03-01T00:08:49;4.30;;;2.65;;
70199;SDS011;57587;55.688;37.600;2023-03-01T00:11:24;3.45;;;1.95;;
70199;SDS011;57587;55.688;37.600;2023-03-01T00:13:54;5.05;;;2.75;;
70199;SDS011;57587;55.688;37.600;2023-03-01T00:16:25;2.87;;;1.70;;
70199;SDS011;57587;55.688;37.600;2023-03-01T00:18:55;4.15;;;2.20;;
70199;SDS011;57587;55.688;37.600;2023-03-01T00:21:23;5.03;;;2.50;;
70199;SDS011;57587;55.688;37.600;2023-03-01T00:23:50;4.47;;;1.90;;
70199;SDS011;57587;55.688;37.600;2023-03-01T00:26:18;5.93;;;2.65;;
70199;SDS011;57587;55.688;37.600;2023-03-01T00:28:46;3.00;;;2.00;;
70199;SDS011;57587;55.688;37.600;2023-03-01T00:31:15;4.18;;;1.80;;
70199;SDS011;57587;55.688;37.600;2023-03-01T00:33:46;2.88;;;1.98;;
70199;SDS011;57587;55.688;37.600;2023-03-01T00:36:14;4.15;;;1.83;;
70199;SDS011;57587;55.688;37.600;2023-03-01T00:38:43;5.32;;;2.17;;
70199;SDS011;57587;55.688;37.600;2023-03-01T00:41:13;3.50;;;2.10;;
70199;SDS011;57587;55.688;37.600;2023-03-01T00:43:43;3.13;;;2.08;;
70199;SDS011;57587;55.688;37.600;2023-03-01T00:46:11;3.90;;;2.35;;
70199;SDS011;57587;55.688;37.600;2023-03-01T00:48:42;4.35;;;2.10;;
70199;SDS011;57587;55.688;37.600;2023-03-01T00:51:10;5.30;;;2.45;;
70199;SDS011;57587;55.688;37.600;2023-03-01T00:53:39;3.30;;;1.70;;
70199;SDS011;57587;55.688;37.600;2023-03-01T00:56:08;5.13;;;2.65;;
70199;SDS011;57587;55.688;37.600;2023-03-01T00:58:36;4.25;;;2.10;;
70199;SDS011;57587;55.688;37.600;2023-03-01T01:01:08;4.32;;;2.22;;
70199;SDS011;57587;55.688;37.600;2023-03-01T01:03:54;4.22;;;2.35;;
70199;SDS011;57587;55.688;37.600;2023-03-01T01:06:27;3.63;;;1.80;;
70199;SDS011;57587;55.688;37.600;2023-03-01T01:09:02;5.57;;;2.00;;
70199;SDS011;57587;55.688;37.600;2023-03-01T01:11:31;4.90;;;2.50;;
70199;SDS011;57587;55.688;37.600;2023-03-01T01:14:01;5.20;;;2.13;;
70199;SDS011;57587;55.688;37.600;2023-03-01T01:16:29;2.50;;;1.95;;
70199;SDS011;57587;55.688;37.600;2023-03-01T01:18:57;4.77;;;2.50;;
70199;SDS011;57587;55.688;37.600;2023-03-01T01:21:24;2.63;;;1.60;;
70199;SDS011;57587;55.688;37.600;2023-03-01T01:23:52;2.75;;;1.65;;
70199;SDS011;57587;55.688;37.600;2023-03-01T01:26:24;2.90;;;1.88;;
70199;SDS011;57587;55.688;37.600;2023-03-01T01:28:53;5.50;;;2.00;;
70199;SDS011;57587;55.688;37.600;2023-03-01T01:31:21;3.30;;;2.10;;
70199;SDS011;57587;55.688;37.600;2023-03-01T01:33:52;3.95;;;1.73;;
70199;SDS011;57587;55.688;37.600;2023-03-01T01:36:20;4.57;;;2.05;;
70199;SDS011;57587;55.688;37.600;2023-03-01T01:38:47;3.92;;;2.40;;
70199;SDS011;57587;55.688;37.600;2023-03-01T01:41:15;4.93;;;2.17;;
70199;SDS011;57587;55.688;37.600;2023-03-01T01:43:44;3.80;;;1.80;;
70199;SDS011;57587;55.688;37.600;2023-03-01T01:49:20;3.63;;;2.25;;
70199;SDS011;57587;55.688;37.600;2023-03-01T01:51:53;3.08;;;2.13;;
70199;SDS011;57587;55.688;37.600;2023-03-01T01:54:28;5.28;;;2.10;;
70199;SDS011;57587;55.688;37.600;2023-03-01T01:57:06;2.90;;;1.80;;
70199;SDS011;57587;55.688;37.600;2023-03-01T01:59:35;4.55;;;2.33;;
70199;SDS011;57587;55.688;37.600;2023-03-01T02:02:04;5.97;;;2.50;;
70199;SDS011;57587;55.688;37.600;2023-03-01T02:04:32;5.63;;;2.60;;
70199;SDS011;57587;55.688;37.600;2023-03-01T02:09:33;4.73;;;1.70;;
70199;SDS011;57587;55.688;37.600;2023-03-01T02:12:02;3.05;;;1.88;;
70199;SDS011;57587;55.688;37.600;2023-03-01T02:14:33;3.03;;;2.00;;
70199;SDS011;57587;55.688;37.600;2023-03-01T02:17:00;5.53;;;2.35;;
70199;SDS011;57587;55.688;37.600;2023-03-01T02:27:38;3.25;;;2.53;;
70199;SDS011;57587;55.688;37.600;2023-03-01T02:30:12;5.70;;;2.22;;
70199;SDS011;57587;55.688;37.600;2023-03-01T02:32:40;5.13;;;1.90;;
70199;SDS011;57587;55.688;37.600;2023-03-01T02:35:09;5.93;;;2.97;;
70199;SDS011;57587;55.688;37.600;2023-03-01T02:37:40;4.95;;;2.33;;
70199;SDS011;57587;55.688;37.600;2023-03-01T02:40:13;3.67;;;2.40;;
70199;SDS011;57587;55.688;37.600;2023-03-01T02:42:51;6.22;;;2.15;;
70199;SDS011;57587;55.688;37.600;2023-03-01T02:45:22;4.05;;;1.67;;
70199;SDS011;57587;55.688;37.600;2023-03-01T02:47:49;2.43;;;1.53;;
70199;SDS011;57587;55.688;37.600;2023-03-01T02:53:00;4.50;;;1.70;;
70199;SDS011;57587;55.688;37.600;2023-03-01T02:55:46;4.63;;;1.80;;
70199;SDS011;57587;55.688;37.600;2023-03-01T02:58:14;3.92;;;2.10;;
70199;SDS011;57587;55.688;37.600;2023-03-01T03:00:42;3.20;;;1.90;;
70199;SDS011;57587;55.688;37.600;2023-03-01T03:03:15;7.10;;;2.13;;
70199;SDS011;57587;55.688;37.600;2023-03-01T03:05:44;3.58;;;2.00;;
70199;SDS011;57587;55.688;37.600;2023-03-01T03:08:11;3.85;;;2.05;;
70199;SDS011;57587;55.688;37.600;2023-03-01T03:10:39;6.00;;;2.00;;
70199;SDS011;57587;55.688;37.600;2023-03-01T03:13:11;4.43;;;2.30;;
70199;SDS011;57587;55.688;37.600;2023-03-01T03:15:41;4.10;;;2.13;;
70199;SDS011;57587;55.688;37.600;2023-03-01T03:18:10;3.65;;;1.85;;
70199;SDS011;57587;55.688;37.600;2023-03-01T03:20:40;3.40;;;2.30;;
70199;SDS011;57587;55.688;37.600;2023-03-01T03:23:08;3.10;;;2.50;;
70199;SDS011;57587;55.688;37.600;2023-03-01T03:25:35;4.80;;;2.53;;
70199;SDS011;57587;55.688;37.600;2023-03-01T03:28:05;5.00;;;3.25;;
70199;SDS011;57587;55.688;37.600;2023-03-01T03:30:37;4.25;;;2.30;;
70199;SDS011;57587;55.688;37.600;2023-03-01T03:33:06;4.40;;;1.92;;
70199;SDS011;57587;55.688;37.600;2023-03-01T03:35:42;5.88;;;2.55;;
70199;SDS011;57587;55.688;37.600;2023-03-01T03:38:15;3.73;;;2.00;;
70199;SDS011;57587;55.688;37.600;2023-03-01T03:40:47;3.47;;;1.90;;
70199;SDS011;57587;55.688;37.600;2023-03-01T03:43:18;4.00;;;2.83;;
70199;SDS011;57587;55.688;37.600;2023-03-01T03:45:47;3.10;;;1.83;;
70199;SDS011;57587;55.688;37.600;2023-03-01T03:48:15;4.07;;;1.83;;
70199;SDS011;57587;55.688;37.600;2023-03-01T03:50:47;4.10;;;1.97;;
70199;SDS011;57587;55.688;37.600;2023-03-01T03:53:16;5.63;;;2.35;;
70199;SDS011;57587;55.688;37.600;2023-03-01T03:55:43;4.38;;;2.13;;
70199;SDS011;57587;55.688;37.600;2023-03-01T03:58:11;5.40;;;2.00;;
70199;SDS011;57587;55.688;37.600;2023-03-01T04:00:39;5.00;;;2.50;;
70199;SDS011;57587;55.688;37.600;2023-03-01T04:03:08;3.87;;;1.87;;
70199;SDS011;57587;55.688;37.600;2023-03-01T04:05:36;6.05;;;2.22;;
70199;SDS011;57587;55.688;37.600;2023-03-01T04:08:05;5.45;;;2.40;;
70199;SDS011;57587;55.688;37.600;2023-03-01T04:10:37;4.57;;;2.10;;
70199;SDS011;57587;55.688;37.600;2023-03-01T04:13:06;3.97;;;2.10;;
70199;SDS011;57587;55.688;37.600;2023-03-01T04:15:34;6.40;;;2.03;;
70199;SDS011;57587;55.688;37.600;2023-03-01T04:18:01;4.15;;;2.03;;
70199;SDS011;57587;55.688;37.600;2023-03-01T04:20:30;4.38;;;2.28;;
70199;SDS011;57587;55.688;37.600;2023-03-01T04:23:05;4.95;;;2.05;;
70199;SDS011;57587;55.688;37.600;2023-03-01T04:25:38;3.72;;;1.95;;
70199;SDS011;57587;55.688;37.600;2023-03-01T04:28:08;7.27;;;2.73;;
70199;SDS011;57587;55.688;37.600;2023-03-01T04:30:36;4.07;;;2.10;;
70199;SDS011;57587;55.688;37.600;2023-03-01T04:33:05;2.85;;;2.00;;
70199;SDS011;57587;55.688;37.600;2023-03-01T04:35:33;6.03;;;2.08;;
70199;SDS011;57587;55.688;37.600;2023-03-01T04:38:02;6.80;;;3.35;;
70199;SDS011;57587;55.688;37.600;2023-03-01T04:40:30;4.47;;;2.20;;
70199;SDS011;57587;55.688;37.600;2023-03-01T04:42:57;4.63;;;2.53;;
70199;SDS011;57587;55.688;37.600;2023-03-01T04:45:24;3.75;;;2.38;;
70199;SDS011;57587;55.688;37.600;2023-03-01T04:47:51;5.38;;;2.20;;
70199;SDS011;57587;55.688;37.600;2023-03-01T04:50:24;5.32;;;2.20;;
70199;SDS011;57587;55.688;37.600;2023-03-01T04:52:52;5.20;;;2.30;;
70199;SDS011;57587;55.688;37.600;2023-03-01T04:55:19;5.75;;;3.00;;
70199;SDS011;57587;55.688;37.600;2023-03-01T04:57:46;4.68;;;3.03;;
70199;SDS011;57587;55.688;37.600;2023-03-01T05:00:13;7.53;;;2.63;;
70199;SDS011;57587;55.688;37.600;2023-03-01T05:05:15;5.50;;;2.50;;
70199;SDS011;57587;55.688;37.600;2023-03-01T05:07:42;5.88;;;2.70;;
70199;SDS011;57587;55.688;37.600;2023-03-01T05:10:09;6.93;;;2.45;;
70199;SDS011;57587;55.688;37.600;2023-03-01T05:12:37;4.60;;;2.42;;
70199;SDS011;57587;55.688;37.600;2023-03-01T05:15:04;3.45;;;2.40;;
70199;SDS011;57587;55.688;37.600;2023-03-01T05:17:33;3.73;;;2.13;;
70199;SDS011;57587;55.688;37.600;2023-03-01T05:20:01;4.50;;;2.35;;
70199;SDS011;57587;55.688;37.600;2023-03-01T05:22:29;2.83;;;2.22;;
70199;SDS011;57587;55.688;37.600;2023-03-01T05:24:56;6.25;;;2.45;;
70199;SDS011;57587;55.688;37.600;2023-03-01T05:27:23;4.32;;;2.50;;
70199;SDS011;57587;55.688;37.600;2023-03-01T05:29:50;4.97;;;2.40;;
70199;SDS011;57587;55.688;37.600;2023-03-01T05:32:17;4.22;;;2.22;;
70199;SDS011;57587;55.688;37.600;2023-03-01T05:34:44;4.05;;;2.30;;
70199;SDS011;57587;55.688;37.600;2023-03-01T05:37:13;8.10;;;2.72;;
70199;SDS011;57587;55.688;37.600;2023-03-01T05:39:40;3.42;;;2.33;;
70199;SDS011;57587;55.688;37.600;2023-03-01T05:42:09;6.07;;;2.60;;
70199;SDS011;57587;55.688;37.600;2023-03-01T05:44:37;6.00;;;2.22;;
70199;SDS011;57587;55.688;37.600;2023-03-01T05:47:05;4.40;;;2.42;;
70199;SDS011;57587;55.688;37.600;2023-03-01T05:49:32;5.15;;;2.40;;
70199;SDS011;57587;55.688;37.600;2023-03-01T05:51:59;5.72;;;2.53;;
70199;SDS011;57587;55.688;37.600;2023-03-01T05:54:26;3.00;;;2.40;;
70199;SDS011;57587;55.688;37.600;2023-03-01T05:56:53;5.30;;;2.83;;
70199;SDS011;57587;55.688;37.600;2023-03-01T05:59:20;5.43;;;3.05;;
70199;SDS011;57587;55.688;37.600;2023-03-01T06:01:47;4.47;;;2.97;;
70199;SDS011;57587;55.688;37.600;2023-03-01T06:04:14;5.30;;;2.63;;
70199;SDS011;57587;55.688;37.600;2023-03-01T06:06:41;4.57;;;2.30;;
70199;SDS011;57587;55.688;37.600;2023-03-01T06:09:08;4.32;;;2.30;;
70199;SDS011;57587;55.688;37.600;2023-03-01T06:11:36;7.65;;;2.42;;
70199;SDS011;57587;55.688;37.600;2023-03-01T06:14:03;5.25;;;2.70;;
70199;SDS011;57587;55.688;37.600;2023-03-01T06:16:33;7.15;;;3.15;;
70199;SDS011;57587;55.688;37.600;2023-03-01T06:19:00;5.13;;;3.60;;
70199;SDS011;57587;55.688;37.600;2023-03-01T06:21:27;5.32;;;3.05;;
70199;SDS011;57587;55.688;37.600;2023-03-01T06:23:54;7.60;;;3.40;;
70199;SDS011;57587;55.688;37.600;2023-03-01T06:26:21;4.57;;;2.63;;
70199;SDS011;57587;55.688;37.600;2023-03-01T06:28:48;3.08;;;2.38;;
70199;SDS011;57587;55.688;37.600;2023-03-01T06:31:15;6.93;;;2.60;;
70199;SDS011;57587;55.688;37.600;2023-03-01T06:33:42;4.43;;;3.00;;
70199;SDS011;57587;55.688;37.600;2023-03-01T06:36:11;4.03;;;2.97;;
70199;SDS011;57587;55.688;37.600;2023-03-01T06:38:38;7.28;;;3.65;;
70199;SDS011;57587;55.688;37.600;2023-03-01T06:41:07;4.90;;;4.43;;
70199;SDS011;57587;55.688;37.600;2023-03-01T06:43:34;7.93;;;4.60;;
70199;SDS011;57587;55.688;37.600;2023-03-01T06:46:03;6.45;;;3.72;;
70199;SDS011;57587;55.688;37.600;2023-03-01T06:48:34;7.85;;;6.13;;
70199;SDS011;57587;55.688;37.600;2023-03-01T06:51:02;6.35;;;5.47;;
70199;SDS011;57587;55.688;37.600;2023-03-01T06:53:29;7.30;;;5.93;;
70199;SDS011;57587;55.688;37.600;2023-03-01T06:55:56;6.33;;;5.47;;
70199;SDS011;57587;55.688;37.600;2023-03-01T06:58:25;5.68;;;5.03;;
70199;SDS011;57587;55.688;37.600;2023-03-01T07:00:52;8.50;;;3.65;;
70199;SDS011;57587;55.688;37.600;2023-03-01T07:03:19;7.32;;;5.60;;
70199;SDS011;57587;55.688;37.600;2023-03-01T07:05:48;5.30;;;3.50;;
70199;SDS011;57587;55.688;37.600;2023-03-01T07:08:16;9.30;;;4.30;;
70199;SDS011;57587;55.688;37.600;2023-03-01T07:10:43;6.70;;;5.30;;
70199;SDS011;57587;55.688;37.600;2023-03-01T07:13:10;7.47;;;6.78;;
70199;SDS011;57587;55.688;37.600;2023-03-01T07:15:39;6.03;;;5.43;;
70199;SDS011;57587;55.688;37.600;2023-03-01T07:18:07;7.32;;;3.97;;
70199;SDS011;57587;55.688;37.600;2023-03-01T07:20:34;6.00;;;4.57;;
70199;SDS011;57587;55.688;37.600;2023-03-01T07:23:01;4.70;;;4.03;;
70199;SDS011;57587;55.688;37.600;2023-03-01T07:25:28;6.95;;;3.13;;
70199;SDS011;57587;55.688;37.600;2023-03-01T07:27:55;6.32;;;5.82;;
70199;SDS011;57587;55.688;37.600;2023-03-01T07:30:22;8.13;;;5.10;;
70199;SDS011;57587;55.688;37.600;2023-03-01T07:32:52;7.10;;;5.17;;
70199;SDS011;57587;55.688;37.600;2023-03-01T07:35:21;5.93;;;5.32;;
70199;SDS011;57587;55.688;37.600;2023-03-01T07:37:49;6.78;;;5.80;;
70199;SDS011;57587;55.688;37.600;2023-03-01T07:40:17;7.13;;;5.68;;
70199;SDS011;57587;55.688;37.600;2023-03-01T07:42:44;5.20;;;4.70;;
70199;SDS011;57587;55.688;37.600;2023-03-01T07:45:11;6.63;;;4.80;;
70199;SDS011;57587;55.688;37.600;2023-03-01T07:47:39;5.85;;;5.28;;
70199;SDS011;57587;55.688;37.600;2023-03-01T07:50:07;5.90;;;4.97;;
70199;SDS011;57587;55.688;37.600;2023-03-01T07:52:34;6.47;;;5.65;;
70199;SDS011;57587;55.688;37.600;2023-03-01T07:55:01;7.57;;;4.95;;
70199;SDS011;57587;55.688;37.600;2023-03-01T07:57:29;5.90;;;5.03;;
70199;SDS011;57587;55.688;37.600;2023-03-01T07:59:56;5.82;;;5.22;;
70199;SDS011;57587;55.688;37.600;2023-03-01T08:02:23;6.97;;;5.30;;
70199;SDS011;57587;55.688;37.600;2023-03-01T08:04:50;6.70;;;5.20;;
70199;SDS011;57587;55.688;37.600;2023-03-01T08:07:17;5.38;;;4.75;;
70199;SDS011;57587;55.688;37.600;2023-03-01T08:09:44;5.83;;;5.00;;
70199;SDS011;57587;55.688;37.600;2023-03-01T08:12:11;7.28;;;5.03;;
70199;SDS011;57587;55.688;37.600;2023-03-01T08:14:38;6.60;;;4.95;;
70199;SDS011;57587;55.688;37.600;2023-03-01T08:17:05;7.03;;;5.18;;
70199;SDS011;57587;55.688;37.600;2023-03-01T08:19:32;5.68;;;5.07;;
70199;SDS011;57587;55.688;37.600;2023-03-01T08:22:01;5.73;;;4.60;;
70199;SDS011;57587;55.688;37.600;2023-03-01T08:24:29;7.32;;;5.18;;
70199;SDS011;57587;55.688;37.600;2023-03-01T08:26:56;5.85;;;4.68;;
70199;SDS011;57587;55.688;37.600;2023-03-01T08:29:23;5.70;;;4.88;;
70199;SDS011;57587;55.688;37.600;2023-03-01T08:31:51;6.15;;;4.72;;
70199;SDS011;57587;55.688;37.600;2023-03-01T08:34:18;5.83;;;4.30;;
70199;SDS011;57587;55.688;37.600;2023-03-01T08:36:46;5.30;;;4.47;;
70199;SDS011;57587;55.688;37.600;2023-03-01T08:39:14;5.32;;;4.40;;
70199;SDS011;57587;55.688;37.600;2023-03-01T08:41:43;4.35;;;3.60;;
70199;SDS011;57587;55.688;37.600;2023-03-01T08:44:14;8.25;;;4.50;;
70199;SDS011;57587;55.688;37.600;2023-03-01T08:46:43;10.80;;;4.80;;
70199;SDS011;57587;55.688;37.600;2023-03-01T08:49:15;5.03;;;4.45;;
70199;SDS011;57587;55.688;37.600;2023-03-01T08:51:44;5.78;;;4.75;;
70199;SDS011;57587;55.688;37.600;2023-03-01T08:54:13;5.68;;;4.68;;
70199;SDS011;57587;55.688;37.600;2023-03-01T08:56:42;11.23;;;5.30;;
70199;SDS011;57587;55.688;37.600;2023-03-01T08:59:10;5.27;;;4.17;;
70199;SDS011;57587;55.688;37.600;2023-03-01T09:01:38;6.78;;;4.72;;
70199;SDS011;57587;55.688;37.600;2023-03-01T09:04:06;5.50;;;4.53;;
70199;SDS011;57587;55.688;37.600;2023-03-01T09:06:34;6.45;;;4.75;;
70199;SDS011;57587;55.688;37.600;2023-03-01T09:09:01;6.07;;;5.10;;
70199;SDS011;57587;55.688;37.600;2023-03-01T09:11:30;5.63;;;4.70;;
70199;SDS011;57587;55.688;37.600;2023-03-01T09:13:57;5.43;;;4.93;;
70199;SDS011;57587;55.688;37.600;2023-03-01T09:16:24;5.22;;;4.72;;
70199;SDS011;57587;55.688;37.600;2023-03-01T09:18:52;8.80;;;4.50;;
70199;SDS011;57587;55.688;37.600;2023-03-01T09:21:21;4.53;;;4.03;;
70199;SDS011;57587;55.688;37.600;2023-03-01T09:24:06;4.43;;;2.20;;
70199;SDS011;57587;55.688;37.600;2023-03-01T09:26:39;6.50;;;4.80;;
70199;SDS011;57587;55.688;37.600;2023-03-01T09:29:07;5.15;;;3.00;;
70199;SDS011;57587;55.688;37.600;2023-03-01T09:31:36;7.65;;;5.30;;
70199;SDS011;57587;55.688;37.600;2023-03-01T09:34:03;6.80;;;4.80;;
70199;SDS011;57587;55.688;37.600;2023-03-01T09:36:31;5.43;;;4.90;;
70199;SDS011;57587;55.688;37.600;2023-03-01T09:39:00;5.38;;;4.43;;
70199;SDS011;57587;55.688;37.600;2023-03-01T09:47:09;6.55;;;4.47;;
70199;SDS011;57587;55.688;37.600;2023-03-01T09:49:42;6.63;;;5.13;;
70199;SDS011;57587;55.688;37.600;2023-03-01T09:54:42;5.68;;;2.67;;
70199;SDS011;57587;55.688;37.600;2023-03-01T09:57:18;6.47;;;4.07;;
70199;SDS011;57587;55.688;37.600;2023-03-01T09:59:50;6.28;;;2.72;;
70199;SDS011;57587;55.688;37.600;2023-03-01T10:10:36;7.07;;;3.67;;
70199;SDS011;57587;55.688;37.600;2023-03-01T10:13:13;5.65;;;3.92;;
70199;SDS011;57587;55.688;37.600;2023-03-01T10:15:47;7.23;;;2.40;;
70199;SDS011;57587;55.688;37.600;2023-03-01T10:18:22;3.88;;;2.40;;
70199;SDS011;57587;55.688;37.600;2023-03-01T10:20:55;5.03;;;2.40;;
70199;SDS011;57587;55.688;37.600;2023-03-01T10:23:26;4.60;;;2.10;;
70199;SDS011;57587;55.688;37.600;2023-03-01T10:25:58;6.78;;;2.85;;
70199;SDS011;57587;55.688;37.600;2023-03-01T10:28:50;4.00;;;2.13;;
70199;SDS011;57587;55.688;37.600;2023-03-01T10:31:27;5.93;;;2.28;;
70199;SDS011;57587;55.688;37.600;2023-03-01T10:34:10;5.70;;;2.60;;
70199;SDS011;57587;55.688;37.600;2023-03-01T10:36:58;5.80;;;2.60;;
70199;SDS011;57587;55.688;37.600;2023-03-01T10:42:45;4.20;;;2.47;;
70199;SDS011;57587;55.688;37.600;2023-03-01T10:48:08;3.72;;;2.35;;
70199;SDS011;57587;55.688;37.600;2023-03-01T10:51:12;5.82;;;3.65;;
70199;SDS011;57587;55.688;37.600;2023-03-01T10:53:42;6.22;;;4.00;;
70199;SDS011;57587;55.688;37.600;2023-03-01T10:56:15;4.37;;;3.70;;
70199;SDS011;57587;55.688;37.600;2023-03-01T10:58:59;5.35;;;3.22;;
70199;SDS011;57587;55.688;37.600;2023-03-01T11:01:37;4.32;;;2.72;;
70199;SDS011;57587;55.688;37.600;2023-03-01T11:06:34;3.20;;;2.42;;
70199;SDS011;57587;55.688;37.600;2023-03-01T11:09:23;6.10;;;3.10;;
70199;SDS011;57587;55.688;37.600;2023-03-01T11:11:55;6.57;;;4.70;;
70199;SDS011;57587;55.688;37.600;2023-03-01T11:14:24;4.78;;;4.32;;
70199;SDS011;57587;55.688;37.600;2023-03-01T11:19:26;5.85;;;3.13;;
70199;SDS011;57587;55.688;37.600;2023-03-01T11:21:55;5.20;;;2.30;;
70199;SDS011;57587;55.688;37.600;2023-03-01T11:30:12;4.20;;;2.20;;
70199;SDS011;57587;55.688;37.600;2023-03-01T11:35:40;3.53;;;1.80;;
70199;SDS011;57587;55.688;37.600;2023-03-01T11:43:30;4.88;;;1.80;;
70199;SDS011;57587;55.688;37.600;2023-03-01T11:54:40;4.07;;;2.55;;
70199;SDS011;57587;55.688;37.600;2023-03-01T12:02:57;8.33;;;3.17;;
70199;SDS011;57587;55.688;37.600;2023-03-01T12:22:09;4.70;;;2.78;;
70199;SDS011;57587;55.688;37.600;2023-03-01T12:25:00;4.75;;;2.00;;
70199;SDS011;57587;55.688;37.600;2023-03-01T12:35:26;3.83;;;2.75;;
70199;SDS011;57587;55.688;37.600;2023-03-01T12:52:14;5.43;;;2.38;;
70199;SDS011;57587;55.688;37.600;2023-03-01T12:54:51;4.20;;;2.45;;
70199;SDS011;57587;55.688;37.600;2023-03-01T12:57:29;3.20;;;2.00;;
70199;SDS011;57587;55.688;37.600;2023-03-01T13:00:14;5.53;;;2.20;;
70199;SDS011;57587;55.688;37.600;2023-03-01T13:03:19;6.85;;;3.33;;
70199;SDS011;57587;55.688;37.600;2023-03-01T13:06:15;3.20;;;1.90;;
70199;SDS011;57587;55.688;37.600;2023-03-01T13:11:42;5.00;;;2.30;;
70199;SDS011;57587;55.688;37.600;2023-03-01T13:16:52;4.63;;;2.70;;
70199;SDS011;57587;55.688;37.600;2023-03-01T13:21:56;4.50;;;1.80;;
70199;SDS011;57587;55.688;37.600;2023-03-01T13:24:33;6.00;;;2.20;;
70199;SDS011;57587;55.688;37.600;2023-03-01T13:29:48;4.22;;;2.58;;
70199;SDS011;57587;55.688;37.600;2023-03-01T13:32:26;4.68;;;2.17;;
70199;SDS011;57587;55.688;37.600;2023-03-01T13:37:46;3.50;;;2.30;;
70199;SDS011;57587;55.688;37.600;2023-03-01T13:42:45;3.45;;;2.35;;
70199;SDS011;57587;55.688;37.600;2023-03-01T13:48:09;3.58;;;2.92;;
70199;SDS011;57587;55.688;37.600;2023-03-01T13:50:47;4.80;;;2.47;;
70199;SDS011;57587;55.688;37.600;2023-03-01T13:53:20;4.68;;;2.25;;
70199;SDS011;57587;55.688;37.600;2023-03-01T13:55:55;3.53;;;2.42;;
70199;SDS011;57587;55.688;37.600;2023-03-01T14:01:04;5.18;;;2.83;;
70199;SDS011;57587;55.688;37.600;2023-03-01T14:03:39;5.13;;;2.20;;
70199;SDS011;57587;55.688;37.600;2023-03-01T14:06:11;9.05;;;3.22;;
70199;SDS011;57587;55.688;37.600;2023-03-01T14:08:46;3.78;;;2.83;;
70199;SDS011;57587;55.688;37.600;2023-03-01T14:19:36;4.28;;;2.58;;
70199;SDS011;57587;55.688;37.600;2023-03-01T14:22:15;4.90;;;3.28;;
70199;SDS011;57587;55.688;37.600;2023-03-01T14:27:23;5.88;;;3.67;;
70199;SDS011;57587;55.688;37.600;2023-03-01T14:29:58;3.23;;;2.10;;
70199;SDS011;57587;55.688;37.600;2023-03-01T14:32:29;3.63;;;2.47;;
70199;SDS011;57587;55.688;37.600;2023-03-01T14:35:00;4.25;;;2.60;;
70199;SDS011;57587;55.688;37.600;2023-03-01T14:37:30;5.07;;;3.10;;
70199;SDS011;57587;55.688;37.600;2023-03-01T14:39:59;2.80;;;2.50;;
70199;SDS011;57587;55.688;37.600;2023-03-01T14:42:35;4.30;;;2.30;;
70199;SDS011;57587;55.688;37.600;2023-03-01T14:45:03;5.60;;;2.53;;
70199;SDS011;57587;55.688;37.600;2023-03-01T14:47:35;3.38;;;2.55;;
70199;SDS011;57587;55.688;37.600;2023-03-01T14:50:07;4.65;;;2.70;;
70199;SDS011;57587;55.688;37.600;2023-03-01T14:52:44;4.05;;;3.10;;
70199;SDS011;57587;55.688;37.600;2023-03-01T14:55:18;5.10;;;2.40;;
70199;SDS011;57587;55.688;37.600;2023-03-01T14:57:48;5.45;;;2.08;;
70199;SDS011;57587;55.688;37.600;2023-03-01T15:00:19;3.58;;;2.85;;
70199;SDS011;57587;55.688;37.600;2023-03-01T15:02:49;4.78;;;2.75;;
70199;SDS011;57587;55.688;37.600;2023-03-01T15:05:23;6.10;;;2.83;;
70199;SDS011;57587;55.688;37.600;2023-03-01T15:07:54;3.07;;;2.37;;
70199;SDS011;57587;55.688;37.600;2023-03-01T15:10:25;5.43;;;2.40;;
70199;SDS011;57587;55.688;37.600;2023-03-01T15:13:22;5.60;;;2.95;;
70199;SDS011;57587;55.688;37.600;2023-03-01T15:15:51;4.68;;;2.63;;
70199;SDS011;57587;55.688;37.600;2023-03-01T15:18:28;4.15;;;2.35;;
70199;SDS011;57587;55.688;37.600;2023-03-01T15:21:04;7.40;;;2.90;;
70199;SDS011;57587;55.688;37.600;2023-03-01T15:23:34;4.95;;;2.83;;
70199;SDS011;57587;55.688;37.600;2023-03-01T15:26:04;5.88;;;3.17;;
70199;SDS011;57587;55.688;37.600;2023-03-01T15:28:34;6.35;;;2.78;;
70199;SDS011;57587;55.688;37.600;2023-03-01T15:31:23;3.53;;;2.78;;
70199;SDS011;57587;55.688;37.600;2023-03-01T15:33:52;5.33;;;2.70;;
70199;SDS011;57587;55.688;37.600;2023-03-01T15:36:44;9.88;;;3.22;;
70199;SDS011;57587;55.688;37.600;2023-03-01T15:41:59;4.20;;;2.05;;
70199;SDS011;57587;55.688;37.600;2023-03-01T15:44:28;4.90;;;2.30;;
70199;SDS011;57587;55.688;37.600;2023-03-01T15:47:22;3.93;;;2.17;;
70199;SDS011;57587;55.688;37.600;2023-03-01T15:49:52;3.75;;;2.35;;
70199;SDS011;57587;55.688;37.600;2023-03-01T15:52:25;5.03;;;2.50;;
70199;SDS011;57587;55.688;37.600;2023-03-01T15:54:59;4.10;;;2.20;;
70199;SDS011;57587;55.688;37.600;2023-03-01T15:57:30;4.38;;;2.20;;
70199;SDS011;57587;55.688;37.600;2023-03-01T15:59:57;3.53;;;2.17;;
70199;SDS011;57587;55.688;37.600;2023-03-01T16:02:24;3.60;;;2.47;;
70199;SDS011;57587;55.688;37.600;2023-03-01T16:04:51;3.50;;;2.13;;
70199;SDS011;57587;55.688;37.600;2023-03-01T16:07:20;3.83;;;2.72;;
70199;SDS011;57587;55.688;37.600;2023-03-01T16:09:47;3.88;;;2.10;;
70199;SDS011;57587;55.688;37.600;2023-03-01T16:12:14;3.00;;;2.13;;
70199;SDS011;57587;55.688;37.600;2023-03-01T16:14:43;3.20;;;2.10;;
70199;SDS011;57587;55.688;37.600;2023-03-01T16:17:10;4.35;;;2.50;;
70199;SDS011;57587;55.688;37.600;2023-03-01T16:19:37;6.68;;;1.95;;
70199;SDS011;57587;55.688;37.600;2023-03-01T16:22:05;2.80;;;2.30;;
70199;SDS011;57587;55.688;37.600;2023-03-01T16:24:32;3.47;;;2.47;;
70199;SDS011;57587;55.688;37.600;2023-03-01T16:26:59;3.80;;;2.63;;
70199;SDS011;57587;55.688;37.600;2023-03-01T16:29:26;3.28;;;2.45;;
70199;SDS011;57587;55.688;37.600;2023-03-01T16:31:53;3.47;;;2.20;;
70199;SDS011;57587;55.688;37.600;2023-03-01T16:34:21;4.43;;;2.45;;
70199;SDS011;57587;55.688;37.600;2023-03-01T16:36:50;4.20;;;2.13;;
70199;SDS011;57587;55.688;37.600;2023-03-01T16:39:17;3.63;;;2.22;;
70199;SDS011;57587;55.688;37.600;2023-03-01T16:41:44;6.68;;;2.78;;
70199;SDS011;57587;55.688;37.600;2023-03-01T16:44:11;5.65;;;2.88;;
70199;SDS011;57587;55.688;37.600;2023-03-01T16:46:38;4.68;;;2.55;;
70199;SDS011;57587;55.688;37.600;2023-03-01T16:49:08;5.67;;;2.40;;
70199;SDS011;57587;55.688;37.600;2023-03-01T16:51:36;4.03;;;2.35;;
70199;SDS011;57587;55.688;37.600;2023-03-01T16:54:03;3.55;;;2.15;;
70199;SDS011;57587;55.688;37.600;2023-03-01T16:56:31;6.90;;;2.78;;
70199;SDS011;57587;55.688;37.600;2023-03-01T16:59:00;7.25;;;2.38;;
70199;SDS011;57587;55.688;37.600;2023-03-01T17:01:31;6.27;;;2.50;;
70199;SDS011;57587;55.688;37.600;2023-03-01T17:04:06;5.78;;;2.28;;
70199;SDS011;57587;55.688;37.600;2023-03-01T17:06:36;3.83;;;2.58;;
70199;SDS011;57587;55.688;37.600;2023-03-01T17:09:03;4.90;;;2.30;;
70199;SDS011;57587;55.688;37.600;2023-03-01T17:11:31;2.90;;;2.33;;
70199;SDS011;57587;55.688;37.600;2023-03-01T17:13:58;3.70;;;2.50;;
70199;SDS011;57587;55.688;37.600;2023-03-01T17:16:25;3.92;;;2.50;;
70199;SDS011;57587;55.688;37.600;2023-03-01T17:18:53;6.03;;;3.08;;
70199;SDS011;57587;55.688;37.600;2023-03-01T17:21:20;4.43;;;2.20;;